createdAt,value
2019-02-03T00:01:34.015Z,41.07
2019-02-03T00:04:01.814Z,40.30
2019-02-03T00:06:32.370Z,45.13
2019-02-03T00:09:00.369Z,41.57
2019-02-03T00:11:28.004Z,43.97
2019-02-03T00:13:55.863Z,49.20
2019-02-03T00:16:25.010Z,46.70
2019-02-03T00:18:54.260Z,60.17
2019-02-03T00:21:22.025Z,53.83
2019-02-03T00:23:49.898Z,61.67
2019-02-03T00:26:18.638Z,60.27
2019-02-03T00:28:46.459Z,65.00
2019-02-03T00:31:14.131Z,59.03
2019-02-03T00:33:42.229Z,51.60
2019-02-03T00:36:13.011Z,53.30
2019-02-03T00:38:41.323Z,60.37
2019-02-03T00:41:09.276Z,57.53
2019-02-03T00:43:39.240Z,56.03
2019-02-03T00:46:07.094Z,56.57
2019-02-03T00:48:34.702Z,51.97
2019-02-03T00:51:02.842Z,51.97
2019-02-03T00:53:30.946Z,53.73
2019-02-03T00:55:58.822Z,54.67
2019-02-03T00:58:26.483Z,57.87
2019-02-03T01:00:54.361Z,53.83
2019-02-03T01:03:22.084Z,56.57
2019-02-03T01:05:49.808Z,57.07
2019-02-03T01:08:17.569Z,52.70
2019-02-03T01:10:45.220Z,51.47
2019-02-03T01:13:12.917Z,48.47
2019-02-03T01:15:40.728Z,48.33
2019-02-03T01:18:08.351Z,49.37
2019-02-03T01:20:35.926Z,51.10
2019-02-03T01:23:03.928Z,51.10
2019-02-03T01:25:31.587Z,49.23
2019-02-03T01:27:59.301Z,46.87
2019-02-03T01:30:27.242Z,46.73
2019-02-03T01:32:54.829Z,47.20
2019-02-03T01:35:22.691Z,47.00
2019-02-03T01:37:52.663Z,48.93
2019-02-03T01:40:20.379Z,46.53
2019-02-03T01:42:49.824Z,50.73
2019-02-03T01:45:19.168Z,47.13
2019-02-03T01:47:47.094Z,50.17
2019-02-03T01:50:14.964Z,51.50
2019-02-03T01:52:43.491Z,57.00
2019-02-03T01:55:14.024Z,53.77
2019-02-03T01:57:41.602Z,53.37
2019-02-03T02:00:20.533Z,53.13
2019-02-03T02:02:48.188Z,56.70
2019-02-03T02:05:16.312Z,50.93
2019-02-03T02:07:51.112Z,51.47
2019-02-03T02:10:16.087Z,61.57
2019-02-03T02:12:43.663Z,57.03
2019-02-03T02:15:13.467Z,54.43
2019-02-03T02:17:41.099Z,54.73
2019-02-03T02:20:19.921Z,59.87
2019-02-03T02:22:47.322Z,60.03
2019-02-03T02:25:15.372Z,57.40
2019-02-03T02:27:43.022Z,60.87
2019-02-03T02:30:12.622Z,55.87
2019-02-03T02:32:40.803Z,60.77
2019-02-03T02:35:09.212Z,61.73
2019-02-03T02:37:36.738Z,65.60
2019-02-03T02:40:13.165Z,63.50
2019-02-03T02:42:35.888Z,56.87
2019-02-03T02:45:04.650Z,58.77
2019-02-03T02:47:32.523Z,58.00
2019-02-03T02:50:02.318Z,58.83
2019-02-03T02:52:29.915Z,57.87
2019-02-03T02:55:00.426Z,72.63
2019-02-03T02:57:28.544Z,73.00
2019-02-03T02:59:56.142Z,71.67
2019-02-03T03:02:23.938Z,70.87
2019-02-03T03:04:51.599Z,73.87
2019-02-03T03:07:19.348Z,75.33
2019-02-03T03:09:47.036Z,70.07
2019-02-03T03:12:14.924Z,73.23
2019-02-03T03:14:44.563Z,72.27
2019-02-03T03:17:15.270Z,75.57
2019-02-03T03:19:43.033Z,62.87
2019-02-03T03:22:10.654Z,56.33
2019-02-03T03:24:38.270Z,61.30
2019-02-03T03:27:05.974Z,61.53
2019-02-03T03:29:33.969Z,58.47
2019-02-03T03:32:01.932Z,60.30
2019-02-03T03:34:30.658Z,62.53
2019-02-03T03:36:58.263Z,58.50
2019-02-03T03:39:25.924Z,54.33
2019-02-03T03:41:53.803Z,57.67
2019-02-03T03:44:23.929Z,57.97
2019-02-03T03:46:51.752Z,56.83
2019-02-03T03:49:19.459Z,61.13
2019-02-03T03:51:47.070Z,56.80
2019-02-03T03:54:14.753Z,55.77
2019-02-03T03:56:42.392Z,61.07
2019-02-03T03:59:10.104Z,56.33
2019-02-03T04:01:38.119Z,53.13
2019-02-03T04:04:05.885Z,56.23
2019-02-03T04:06:33.448Z,61.43
2019-02-03T04:09:01.486Z,60.80
2019-02-03T04:11:29.637Z,56.43
2019-02-03T04:13:57.330Z,62.07
2019-02-03T04:16:24.943Z,49.77
2019-02-03T04:18:52.904Z,62.13
2019-02-03T04:21:20.543Z,63.67
2019-02-03T04:23:48.189Z,65.13
2019-02-03T04:26:15.937Z,63.07
2019-02-03T04:28:43.543Z,60.63
2019-02-03T04:31:11.213Z,64.23
2019-02-03T04:33:39.338Z,60.73
2019-02-03T04:36:07.226Z,63.73
2019-02-03T04:38:37.487Z,62.93
2019-02-03T04:41:08.059Z,69.30
2019-02-03T04:43:35.717Z,62.67
2019-02-03T04:46:03.339Z,64.27
2019-02-03T04:48:31.305Z,66.37
2019-02-03T04:50:59.024Z,61.10
2019-02-03T04:53:27.208Z,64.03
2019-02-03T04:55:56.206Z,65.93
2019-02-03T04:58:25.180Z,64.80
2019-02-03T05:00:52.762Z,67.13
2019-02-03T05:03:21.223Z,64.57
2019-02-03T05:05:51.398Z,66.77
2019-02-03T05:08:19.011Z,62.70
2019-02-03T05:10:47.304Z,67.80
2019-02-03T05:13:14.913Z,65.07
2019-02-03T05:15:42.516Z,61.33
2019-02-03T05:18:10.470Z,63.63
2019-02-03T05:20:38.117Z,61.93
2019-02-03T05:23:05.910Z,67.43
2019-02-03T05:25:34.882Z,58.73
2019-02-03T05:28:02.587Z,51.27
2019-02-03T05:30:32.246Z,58.07
2019-02-03T05:33:02.180Z,54.57
2019-02-03T05:35:29.853Z,61.17
2019-02-03T05:37:57.476Z,64.27
2019-02-03T05:40:25.113Z,53.97
2019-02-03T05:42:52.765Z,62.57
2019-02-03T05:45:20.988Z,61.03
2019-02-03T05:47:50.157Z,60.97
2019-02-03T05:50:20.314Z,60.90
2019-02-03T05:52:47.929Z,59.67
2019-02-03T05:55:16.171Z,55.73
2019-02-03T05:57:43.793Z,55.70
2019-02-03T06:00:18.733Z,56.10
2019-02-03T06:02:46.330Z,53.43
2019-02-03T06:05:15.448Z,52.70
2019-02-03T06:07:43.218Z,55.93
2019-02-03T06:10:12.959Z,57.10
2019-02-03T06:12:40.617Z,53.07
2019-02-03T06:15:09.260Z,53.50
2019-02-03T06:17:36.982Z,49.90
2019-02-03T06:20:07.470Z,51.37
2019-02-03T06:22:35.379Z,47.80
2019-02-03T06:25:03.598Z,55.40
2019-02-03T06:27:33.034Z,48.83
2019-02-03T06:30:00.906Z,51.87
2019-02-03T06:32:28.490Z,47.23
2019-02-03T06:34:56.064Z,50.70
2019-02-03T06:37:23.684Z,48.57
2019-02-03T06:39:51.350Z,46.00
2019-02-03T06:42:21.692Z,43.73
2019-02-03T06:44:49.300Z,51.13
2019-02-03T06:47:21.461Z,50.17
2019-02-03T06:49:49.057Z,44.00
2019-02-03T06:52:18.632Z,41.37
2019-02-03T06:54:47.450Z,43.50
2019-02-03T06:57:15.041Z,47.67
2019-02-03T06:59:50.488Z,39.93
2019-02-03T07:02:12.729Z,46.63
2019-02-03T07:04:40.364Z,44.13
2019-02-03T07:07:09.076Z,45.40
2019-02-03T07:09:38.501Z,44.10
2019-02-03T07:12:07.377Z,42.57
2019-02-03T07:14:35.750Z,42.37
2019-02-03T07:17:03.541Z,42.27
2019-02-03T07:19:32.957Z,42.73
2019-02-03T07:22:00.553Z,44.50
2019-02-03T07:24:28.120Z,39.40
2019-02-03T07:26:55.754Z,41.37
2019-02-03T07:29:23.658Z,40.40
2019-02-03T07:31:51.319Z,40.93
2019-02-03T07:34:19.159Z,39.40
2019-02-03T07:36:48.484Z,33.67
2019-02-03T07:39:16.029Z,34.93
2019-02-03T07:41:43.682Z,33.93
2019-02-03T07:44:11.287Z,35.97
2019-02-03T07:46:38.942Z,41.50
2019-02-03T07:49:06.638Z,41.70
2019-02-03T07:51:34.523Z,33.67
2019-02-03T07:54:08.616Z,34.83
2019-02-03T07:56:39.526Z,37.10
2019-02-03T07:59:11.994Z,32.03
2019-02-03T08:01:40.651Z,33.63
2019-02-03T08:04:08.229Z,34.60
2019-02-03T08:06:36.100Z,34.07
2019-02-03T08:09:07.642Z,32.23
2019-02-03T08:11:35.240Z,34.17
2019-02-03T08:14:03.720Z,31.23
2019-02-03T08:16:31.582Z,31.93
2019-02-03T08:19:02.470Z,30.50
2019-02-03T08:21:30.352Z,24.87
2019-02-03T08:24:00.780Z,28.70
2019-02-03T08:26:28.493Z,29.20
2019-02-03T08:28:56.380Z,27.80
2019-02-03T08:31:24.469Z,25.57
2019-02-03T08:33:57.627Z,27.20
2019-02-03T08:36:25.482Z,24.77
2019-02-03T08:38:53.097Z,28.30
2019-02-03T08:41:23.169Z,26.57
2019-02-03T08:43:50.975Z,30.70
2019-02-03T08:46:18.561Z,25.33
2019-02-03T08:48:46.227Z,26.83
2019-02-03T08:51:17.453Z,31.57
2019-02-03T08:53:45.011Z,28.80
2019-02-03T08:56:12.767Z,27.77
2019-02-03T08:58:40.806Z,31.00
2019-02-03T09:01:08.433Z,30.03
2019-02-03T09:03:36.289Z,33.40
2019-02-03T09:06:04.369Z,30.17
2019-02-03T09:08:32.196Z,27.13
2019-02-03T09:10:59.829Z,29.67
2019-02-03T09:13:28.000Z,30.23
2019-02-03T09:15:56.083Z,29.37
2019-02-03T09:18:25.611Z,31.00
2019-02-03T09:20:55.972Z,31.20
2019-02-03T09:23:25.348Z,31.37
2019-02-03T09:25:54.595Z,32.67
2019-02-03T09:28:22.616Z,30.57
2019-02-03T09:30:51.112Z,32.10
2019-02-03T09:33:18.787Z,31.93
2019-02-03T09:35:47.469Z,33.67
2019-02-03T09:38:17.321Z,33.73
2019-02-03T09:40:59.323Z,31.97
2019-02-03T09:43:17.498Z,30.70
2019-02-03T09:45:46.439Z,33.73
2019-02-03T09:48:14.428Z,36.93
2019-02-03T09:50:42.600Z,34.10
2019-02-03T09:53:10.497Z,36.90
2019-02-03T09:55:40.995Z,30.77
2019-02-03T09:58:11.515Z,27.67
2019-02-03T10:00:39.127Z,31.60
2019-02-03T10:03:08.659Z,31.10
2019-02-03T10:05:38.598Z,27.97
2019-02-03T10:08:06.495Z,33.87
2019-02-03T10:10:35.988Z,30.67
2019-02-03T10:13:04.672Z,27.97
2019-02-03T10:15:33.601Z,32.00
2019-02-03T10:18:09.080Z,29.30
2019-02-03T10:20:37.366Z,27.53
2019-02-03T10:23:05.195Z,22.77
2019-02-03T10:25:33.247Z,28.43
2019-02-03T10:28:00.890Z,25.83
2019-02-03T10:30:29.085Z,25.83
2019-02-03T10:32:57.662Z,23.70
2019-02-03T10:35:26.842Z,21.37
2019-02-03T10:37:54.853Z,24.13
2019-02-03T10:40:25.552Z,20.20
2019-02-03T10:42:54.212Z,22.40
2019-02-03T10:45:22.734Z,21.47
2019-02-03T10:47:51.320Z,19.63
2019-02-03T10:50:21.081Z,21.40
2019-02-03T10:52:49.278Z,17.60
2019-02-03T10:55:17.371Z,17.60
2019-02-03T10:57:48.116Z,17.03
2019-02-03T11:00:19.003Z,18.20
2019-02-03T11:02:46.739Z,20.53
2019-02-03T11:05:20.724Z,20.40
2019-02-03T11:07:48.612Z,24.20
2019-02-03T11:10:23.620Z,18.47
2019-02-03T11:12:51.621Z,15.90
2019-02-03T11:15:19.839Z,15.37
2019-02-03T11:17:48.308Z,18.17
2019-02-03T11:20:18.675Z,19.57
2019-02-03T11:22:46.441Z,20.10
2019-02-03T11:25:15.725Z,17.40
2019-02-03T11:27:43.723Z,20.63
2019-02-03T11:30:15.225Z,20.10
2019-02-03T11:32:43.273Z,20.87
2019-02-03T11:35:23.170Z,18.17
2019-02-03T11:37:52.045Z,25.77
2019-02-03T11:40:22.518Z,21.73
2019-02-03T11:42:56.278Z,23.00
2019-02-03T11:45:30.757Z,20.67
2019-02-03T11:47:59.711Z,20.90
2019-02-03T11:50:30.469Z,24.87
2019-02-03T11:52:58.247Z,18.87
2019-02-03T11:55:28.495Z,20.97
2019-02-03T11:57:56.134Z,19.17
2019-02-03T12:00:26.554Z,21.03
2019-02-03T12:02:54.434Z,18.00
2019-02-03T12:05:23.507Z,17.93
2019-02-03T12:07:51.585Z,20.23
2019-02-03T12:10:21.961Z,17.50
2019-02-03T12:12:49.697Z,15.53
2019-02-03T12:15:18.064Z,17.10
2019-02-03T12:17:46.009Z,17.10
2019-02-03T12:20:15.271Z,18.40
2019-02-03T12:22:44.823Z,15.70
2019-02-03T12:25:16.203Z,13.73
2019-02-03T12:27:43.804Z,15.90
2019-02-03T12:30:15.039Z,14.37
2019-02-03T12:32:43.186Z,18.27
2019-02-03T12:35:12.809Z,16.07
2019-02-03T12:37:41.578Z,17.57
2019-02-03T12:40:14.718Z,18.17
2019-02-03T12:42:43.621Z,15.93
2019-02-03T12:45:13.219Z,17.37
2019-02-03T12:47:40.946Z,17.93
2019-02-03T12:50:10.739Z,19.80
2019-02-03T12:52:38.622Z,16.03
2019-02-03T12:55:08.054Z,15.03
2019-02-03T12:57:46.558Z,13.13
2019-02-03T13:00:22.260Z,14.50
2019-02-03T13:02:56.330Z,13.97
2019-02-03T13:05:28.686Z,15.40
2019-02-03T13:07:57.187Z,14.60
2019-02-03T13:10:26.773Z,16.80
2019-02-03T13:12:54.635Z,16.57
2019-02-03T13:15:46.176Z,16.67
2019-02-03T13:18:17.102Z,17.07
2019-02-03T13:20:45.512Z,20.93
2019-02-03T13:23:19.378Z,14.63
2019-02-03T13:25:50.300Z,15.43
2019-02-03T13:28:20.451Z,16.13
2019-02-03T13:30:50.046Z,15.90
2019-02-03T13:33:18.067Z,14.73
2019-02-03T13:35:46.076Z,12.47
2019-02-03T13:38:14.318Z,15.93
2019-02-03T13:40:43.450Z,13.93
2019-02-03T13:43:23.383Z,14.53
2019-02-03T13:45:53.843Z,14.97
2019-02-03T13:48:26.304Z,13.37
2019-02-03T13:50:54.828Z,12.27
2019-02-03T13:53:26.598Z,11.20
2019-02-03T13:55:54.843Z,12.97
2019-02-03T13:58:36.532Z,13.20
2019-02-03T14:01:00.352Z,11.33
2019-02-03T14:03:28.205Z,13.00
2019-02-03T14:05:59.111Z,13.93
2019-02-03T14:08:30.133Z,11.80
2019-02-03T14:10:57.881Z,12.63
2019-02-03T14:13:27.838Z,12.67
2019-02-03T14:15:56.502Z,13.60
2019-02-03T14:18:25.413Z,11.60
2019-02-03T14:20:53.001Z,11.57
2019-02-03T14:23:20.668Z,15.10
2019-02-03T14:25:49.115Z,14.80
2019-02-03T14:28:17.460Z,14.90
2019-02-03T14:30:45.820Z,16.53
2019-02-03T14:33:13.752Z,21.87
2019-02-03T14:35:42.136Z,17.73
2019-02-03T14:38:12.833Z,12.13
2019-02-03T14:40:43.093Z,15.53
2019-02-03T14:43:12.782Z,17.10
2019-02-03T14:45:45.495Z,15.20
2019-02-03T14:48:29.502Z,14.27
2019-02-03T14:51:02.174Z,20.70
2019-02-03T14:53:35.330Z,17.80
2019-02-03T14:56:03.535Z,19.03
2019-02-03T14:58:36.355Z,18.43
2019-02-03T15:01:07.786Z,21.90
2019-02-03T15:03:44.726Z,23.23
2019-02-03T15:06:12.821Z,19.00
2019-02-03T15:08:44.691Z,19.10
2019-02-03T15:11:13.640Z,14.83
2019-02-03T15:13:50.652Z,14.63
2019-02-03T15:16:23.254Z,15.37
2019-02-03T15:18:51.247Z,16.80
2019-02-03T15:21:21.748Z,15.87
2019-02-03T15:23:53.267Z,25.87
2019-02-03T15:26:24.530Z,15.83
2019-02-03T15:28:52.582Z,19.27
2019-02-03T15:31:26.015Z,14.37
2019-02-03T15:33:54.637Z,15.60
2019-02-03T15:36:25.745Z,15.27
2019-02-03T15:38:53.562Z,13.03
2019-02-03T15:41:21.202Z,13.27
2019-02-03T15:43:53.347Z,10.60
2019-02-03T15:46:22.704Z,12.73
2019-02-03T15:48:50.360Z,13.83
2019-02-03T15:51:18.231Z,13.43
2019-02-03T15:53:45.872Z,10.03
2019-02-03T15:56:13.752Z,12.57
2019-02-03T15:58:44.085Z,12.70
2019-02-03T16:01:13.859Z,12.87
2019-02-03T16:03:41.768Z,15.03
2019-02-03T16:06:11.443Z,11.40
2019-02-03T16:08:41.306Z,13.97
2019-02-03T16:11:09.476Z,12.23
2019-02-03T16:13:38.341Z,17.97
2019-02-03T16:16:11.281Z,11.50
2019-02-03T16:18:43.205Z,11.23
2019-02-03T16:21:13.830Z,12.67
2019-02-03T16:23:52.268Z,10.73
2019-02-03T16:26:21.514Z,57.27
2019-02-03T16:28:51.893Z,47.10
2019-02-03T16:31:19.597Z,31.60
2019-02-03T16:33:47.262Z,114.87
2019-02-03T16:36:24.725Z,14.63
2019-02-03T16:38:52.463Z,11.60
2019-02-03T16:41:20.279Z,14.60
2019-02-03T16:43:49.399Z,8.97
2019-02-03T16:46:17.626Z,9.13
2019-02-03T16:48:48.630Z,8.10
2019-02-03T16:51:16.571Z,10.10
2019-02-03T16:53:51.114Z,10.87
2019-02-03T16:56:19.217Z,50.93
2019-02-03T16:58:46.844Z,43.37
2019-02-03T17:01:22.897Z,8.97
2019-02-03T17:03:54.554Z,11.27
2019-02-03T17:06:22.430Z,11.57
2019-02-03T17:08:55.171Z,25.47
2019-02-03T17:11:23.869Z,33.03
2019-02-03T17:14:00.194Z,40.53
2019-02-03T17:16:21.433Z,45.27
2019-02-03T17:18:59.833Z,39.33
2019-02-03T17:21:33.758Z,30.87
2019-02-03T17:24:03.628Z,34.37
2019-02-03T17:26:31.474Z,52.97
2019-02-03T17:29:17.906Z,42.90
2019-02-03T17:31:47.372Z,52.40
2019-02-03T17:34:20.435Z,32.57
2019-02-03T17:36:51.076Z,18.43
2019-02-03T17:39:18.774Z,24.47
2019-02-03T17:41:47.002Z,10.87
2019-02-03T17:44:19.856Z,46.50
2019-02-03T17:46:52.287Z,43.10
2019-02-03T17:49:19.926Z,48.70
2019-02-03T17:51:51.070Z,120.63
2019-02-03T17:54:18.875Z,80.47
2019-02-03T17:56:46.952Z,142.67
2019-02-03T17:59:15.159Z,172.60
2019-02-03T18:01:52.259Z,20.57
2019-02-03T18:04:37.320Z,13.40
2019-02-03T18:07:05.358Z,9.57
2019-02-03T18:09:35.451Z,11.27
2019-02-03T18:12:03.700Z,14.87
2019-02-03T18:14:31.467Z,16.13
2019-02-03T18:17:02.243Z,8.43
2019-02-03T18:19:32.271Z,13.43
2019-02-03T18:22:05.359Z,24.83
2019-02-03T18:24:47.621Z,24.20
2019-02-03T18:27:24.426Z,14.43
2019-02-03T18:29:55.107Z,16.47
2019-02-03T18:32:25.481Z,12.90
2019-02-03T18:34:53.298Z,19.70
2019-02-03T18:37:21.115Z,16.23
2019-02-03T18:39:49.840Z,12.83
2019-02-03T18:42:26.082Z,8.73
2019-02-03T18:44:56.546Z,9.07
2019-02-03T18:47:28.031Z,10.27
2019-02-03T18:49:57.651Z,10.70
2019-02-03T18:52:30.342Z,11.43
2019-02-03T18:54:58.239Z,8.73
2019-02-03T18:57:36.888Z,9.93
2019-02-03T19:00:10.693Z,8.70
2019-02-03T19:02:38.356Z,64.70
2019-02-03T19:05:08.231Z,41.23
2019-02-03T19:07:36.565Z,122.73
2019-02-03T19:10:06.390Z,58.17
2019-02-03T19:12:39.881Z,18.17
2019-02-03T19:15:12.084Z,10.30
2019-02-03T19:17:40.491Z,10.93
2019-02-03T19:20:15.331Z,8.40
2019-02-03T19:22:45.059Z,9.30
2019-02-03T19:25:13.639Z,9.77
2019-02-03T19:27:47.750Z,9.93
2019-02-03T19:30:18.436Z,8.67
2019-02-03T19:32:51.990Z,12.67
2019-02-03T19:35:20.844Z,8.53
2019-02-03T19:37:57.142Z,20.20
2019-02-03T19:40:27.369Z,10.50
2019-02-03T19:43:10.529Z,13.80
2019-02-03T19:45:49.272Z,14.83
2019-02-03T19:48:21.461Z,12.20
2019-02-03T19:51:07.370Z,9.57
2019-02-03T19:53:35.549Z,8.60
2019-02-03T19:56:03.700Z,12.17
2019-02-03T19:58:31.405Z,9.00
2019-02-03T20:01:00.557Z,9.00
2019-02-03T20:03:33.105Z,9.57
2019-02-03T20:06:02.441Z,12.73
2019-02-03T20:08:33.100Z,9.10
2019-02-03T20:11:04.117Z,10.30
2019-02-03T20:13:50.617Z,8.10
2019-02-03T20:16:18.608Z,10.73
2019-02-03T20:18:50.949Z,7.83
2019-02-03T20:21:21.517Z,7.37
2019-02-03T20:23:53.500Z,10.33
2019-02-03T20:26:21.486Z,8.30
2019-02-03T20:28:49.278Z,10.80
2019-02-03T20:31:16.916Z,10.13
2019-02-03T20:33:44.595Z,8.87
2019-02-03T20:36:16.471Z,9.93
2019-02-03T20:38:45.881Z,12.43
2019-02-03T20:41:13.551Z,16.33
2019-02-03T20:43:44.351Z,9.93
2019-02-03T20:46:14.605Z,14.10
2019-02-03T20:48:49.831Z,14.83
2019-02-03T20:51:20.298Z,10.13
2019-02-03T20:53:50.255Z,11.63
2019-02-03T20:56:17.842Z,8.47
2019-02-03T20:58:51.613Z,18.70
2019-02-03T21:01:19.554Z,13.77
2019-02-03T21:03:48.629Z,10.47
2019-02-03T21:06:38.608Z,10.50
2019-02-03T21:09:11.979Z,16.47
2019-02-03T21:11:40.131Z,7.43
2019-02-03T21:14:07.810Z,9.67
2019-02-03T21:16:40.431Z,8.27
2019-02-03T21:19:12.539Z,11.20
2019-02-03T21:21:48.608Z,8.23
2019-02-03T21:24:16.802Z,11.90
2019-02-03T21:26:44.413Z,5.43
2019-02-03T21:29:13.851Z,8.17
2019-02-03T21:31:43.118Z,6.43
2019-02-03T21:34:11.222Z,9.23
2019-02-03T21:36:41.518Z,8.23
2019-02-03T21:39:10.219Z,7.83
2019-02-03T21:41:40.873Z,11.60
2019-02-03T21:44:08.667Z,10.00
2019-02-03T21:46:38.686Z,13.70
2019-02-03T21:49:08.383Z,9.77
2019-02-03T21:51:36.245Z,11.10
2019-02-03T21:54:07.045Z,9.37
2019-02-03T21:56:34.859Z,8.90
2019-02-03T21:59:03.788Z,11.37
2019-02-03T22:01:33.995Z,9.03
2019-02-03T22:04:02.073Z,8.80
2019-02-03T22:06:31.067Z,8.83
2019-02-03T22:09:00.198Z,9.13
2019-02-03T22:11:27.808Z,7.20
2019-02-03T22:13:59.946Z,11.63
2019-02-03T22:16:29.773Z,8.23
2019-02-03T22:18:57.754Z,8.53
2019-02-03T22:21:25.354Z,9.53
2019-02-03T22:23:53.434Z,11.53
2019-02-03T22:26:21.333Z,12.23
2019-02-03T22:28:50.756Z,10.23
2019-02-03T22:31:21.363Z,6.77
2019-02-03T22:33:49.026Z,8.03
2019-02-03T22:36:16.890Z,7.57
2019-02-03T22:38:44.907Z,7.20
2019-02-03T22:41:15.628Z,8.68
2019-02-03T22:43:46.097Z,8.80
2019-02-03T22:46:14.048Z,8.60
2019-02-03T22:48:41.720Z,7.57
2019-02-03T22:51:09.646Z,8.37
2019-02-03T22:53:37.637Z,7.60
2019-02-03T22:56:05.468Z,11.30
2019-02-03T22:58:33.234Z,8.53
2019-02-03T23:01:16.507Z,9.73
2019-02-03T23:04:27.314Z,9.80
2019-02-03T23:06:57.020Z,11.83
2019-02-03T23:09:33.547Z,9.33
2019-02-03T23:12:02.864Z,8.65
2019-02-03T23:14:33.501Z,9.63
2019-02-03T23:17:01.297Z,14.20
2019-02-03T23:19:29.103Z,15.67
2019-02-03T23:22:08.945Z,20.37
2019-02-03T23:24:37.126Z,15.43
2019-02-03T23:27:05.143Z,15.17
2019-02-03T23:29:33.773Z,10.93
2019-02-03T23:32:01.745Z,10.75
2019-02-03T23:34:33.791Z,8.73
2019-02-03T23:37:02.455Z,10.50
2019-02-03T23:39:33.359Z,11.17
2019-02-03T23:42:01.082Z,13.43
2019-02-03T23:44:29.074Z,13.80
2019-02-03T23:46:56.986Z,13.63
2019-02-03T23:49:26.391Z,12.40
2019-02-03T23:51:55.340Z,16.07
2019-02-03T23:54:24.990Z,11.55
2019-02-03T23:56:53.363Z,11.38
2019-02-03T23:59:21.523Z,13.98
